Time;durP1;ratioP1;P1;durP2;ratioP2;P2;SDS_P1;SDS_P2;PMS_P1;PMS_P2;Temp;Humidity;BMP_temperature;BMP_pressure;BME280_temperature;BME280_humidity;BME280_pressure;Samples;Min_cycle;Max_cycle;Signal;HPM_P1;HPM_P2
2022/03/24 00:00:10;;;;;;;42.83;23.00;;;;;;;4.15;42.71;96029.09;5030518;28;20083;-66
2022/03/24 00:02:36;;;;;;;38.45;22.42;;;;;;;4.29;42.77;96063.69;5030340;28;20025;-67
2022/03/24 00:05:02;;;;;;;36.65;21.73;;;;;;;4.22;42.63;96061.25;5030190;28;20792;-68
2022/03/24 00:07:28;;;;;;;37.47;20.65;;;;;;;4.14;43.31;96057.19;5029535;28;20076;-67
2022/03/24 00:09:54;;;;;;;35.60;22.55;;;;;;;3.94;43.26;96024.44;5030210;28;20630;-66
2022/03/24 00:12:21;;;;;;;37.28;24.05;;;;;;;3.92;42.98;96037.22;5030106;28;20025;-66
2022/03/24 00:14:47;;;;;;;34.35;21.52;;;;;;;3.70;43.19;96013.84;5029942;28;20566;-68
2022/03/24 00:17:12;;;;;;;32.80;21.33;;;;;;;3.68;42.93;96021.53;5029666;28;20057;-66
2022/03/24 00:19:38;;;;;;;38.05;20.23;;;;;;;3.67;43.33;96019.00;5029456;28;20030;-67
2022/03/24 00:22:04;;;;;;;30.58;18.83;;;;;;;3.67;43.34;96027.53;5029047;28;20148;-66
2022/03/24 00:24:29;;;;;;;31.75;18.52;;;;;;;3.68;43.14;96038.56;5029626;28;20591;-67
2022/03/24 00:26:55;;;;;;;33.13;18.88;;;;;;;3.48;43.17;96001.53;5029794;28;20033;-66
2022/03/24 00:29:21;;;;;;;31.35;18.73;;;;;;;3.72;43.76;96034.22;5029769;28;20758;-68
2022/03/24 00:31:46;;;;;;;32.95;18.88;;;;;;;3.72;43.64;96027.41;5029374;28;20044;-67
2022/03/24 00:34:13;;;;;;;30.42;18.45;;;;;;;3.72;43.46;96024.03;5029697;28;20029;-67
2022/03/24 00:36:38;;;;;;;35.88;19.95;;;;;;;3.74;43.36;96024.81;5029576;28;20482;-68
2022/03/24 00:39:04;;;;;;;29.58;17.05;;;;;;;3.63;43.53;96010.59;5029602;28;20029;-67
2022/03/24 00:41:30;;;;;;;33.22;18.52;;;;;;;3.75;43.24;96016.31;5029755;28;20041;-67
2022/03/24 00:43:56;;;;;;;29.05;18.98;;;;;;;3.53;43.62;95990.41;5027826;28;20060;-67
2022/03/24 00:46:22;;;;;;;30.90;17.63;;;;;;;3.61;43.11;96002.13;5029375;28;20044;-64
2022/03/24 00:48:52;;;;;;;30.15;17.65;;;;;;;3.53;43.16;96006.53;5029766;28;20088;-66
2022/03/24 00:51:18;;;;;;;32.70;16.80;;;;;;;3.50;43.05;96012.53;5029208;28;20021;-67
2022/03/24 00:53:44;;;;;;;30.05;18.02;;;;;;;3.15;43.18;95971.56;5029170;28;20032;-66
2022/03/24 00:56:10;;;;;;;27.13;15.30;;;;;;;3.29;43.48;95998.47;5028495;28;20048;-67
2022/03/24 00:58:36;;;;;;;28.27;17.52;;;;;;;3.00;43.12;95959.94;5027757;28;20524;-67
2022/03/24 01:01:03;;;;;;;46.30;26.00;;;;;;;3.07;43.98;95975.09;5028860;28;20026;-67
2022/03/24 01:03:28;;;;;;;47.80;26.85;;;;;;;3.11;44.27;96004.75;5028858;28;20642;-66
2022/03/24 01:05:54;;;;;;;43.40;25.30;;;;;;;2.65;44.68;95941.03;5028976;28;20025;-67
2022/03/24 01:08:22;;;;;;;42.58;24.33;;;;;;;2.62;45.19;95953.81;5028566;28;20051;-66
2022/03/24 01:10:48;;;;;;;41.88;22.88;;;;;;;2.69;45.01;95980.84;5028868;28;20469;-67
2022/03/24 01:13:15;;;;;;;29.63;18.58;;;;;;;2.59;44.70;95967.44;5027517;28;20025;-66
2022/03/24 01:15:45;;;;;;;32.80;17.48;;;;;;;2.76;44.67;96011.31;5028554;28;20029;-68
2022/03/24 01:18:14;;;;;;;29.65;17.33;;;;;;;2.56;44.92;95981.06;5028679;28;20128;-66
2022/03/24 01:20:41;;;;;;;31.35;16.85;;;;;;;2.51;45.03;95998.13;5028131;28;20026;-66
2022/03/24 01:23:07;;;;;;;28.35;15.45;;;;;;;2.50;45.45;96003.25;5028813;28;20040;-66
2022/03/24 01:25:33;;;;;;;24.88;14.68;;;;;;;2.35;45.85;96005.16;5027123;28;20033;-66
2022/03/24 01:27:58;;;;;;;25.25;14.95;;;;;;;2.12;46.49;95984.31;5028819;28;20029;-66
2022/03/24 01:30:24;;;;;;;24.52;14.77;;;;;;;2.21;46.78;95994.31;5028093;28;20029;-67
2022/03/24 01:32:50;;;;;;;25.58;14.60;;;;;;;1.82;46.67;95956.72;5028316;28;20121;-67
2022/03/24 01:35:16;;;;;;;22.08;14.63;;;;;;;2.00;47.45;96003.09;5028457;28;20104;-66
2022/03/24 01:37:42;;;;;;;23.45;15.32;;;;;;;1.98;47.45;95992.97;5028484;28;20056;-66
2022/03/24 01:40:10;;;;;;;29.77;16.08;;;;;;;0.63;47.01;95781.25;5028809;28;20037;-66
2022/03/24 01:42:37;;;;;;;21.48;14.15;;;;;;;2.07;46.92;95975.91;5028365;28;20269;-67
2022/03/24 01:45:04;;;;;;;27.88;16.63;;;;;;;2.34;47.11;95980.56;5028611;28;20041;-66
2022/03/24 01:47:29;;;;;;;29.27;17.92;;;;;;;2.51;47.14;95977.75;5028323;28;20048;-67
2022/03/24 01:49:58;;;;;;;30.95;17.50;;;;;;;2.29;47.65;95956.03;5028455;28;20349;-68
2022/03/24 01:52:25;;;;;;;31.95;17.65;;;;;;;2.30;48.19;95976.38;5027987;28;20038;-68
2022/03/24 01:54:56;;;;;;;27.90;16.17;;;;;;;2.20;48.03;95978.22;5027712;28;20554;-67
2022/03/24 01:57:24;;;;;;;28.25;16.95;;;;;;;2.07;48.91;95983.53;5028329;28;20028;-67
2022/03/24 01:59:49;;;;;;;26.75;15.70;;;;;;;1.99;49.19;95981.09;5028240;28;20496;-67
2022/03/24 02:02:15;;;;;;;24.38;16.00;;;;;;;1.98;49.91;95985.34;5028227;28;20151;-68
2022/03/24 02:04:42;;;;;;;31.60;17.33;;;;;;;1.91;49.31;95981.19;5028161;28;20060;-68
2022/03/24 02:07:08;;;;;;;30.92;17.55;;;;;;;1.96;49.30;95986.22;5027678;28;20073;-66
2022/03/24 02:09:36;;;;;;;28.55;16.02;;;;;;;1.94;49.66;95982.84;5027999;28;20029;-67
2022/03/24 02:12:03;;;;;;;23.67;15.43;;;;;;;1.48;49.18;95887.69;5028135;28;20025;-67
2022/03/24 02:14:29;;;;;;;29.98;16.70;;;;;;;1.62;49.81;95916.31;5027616;28;20477;-67
2022/03/24 02:16:56;;;;;;;32.58;16.65;;;;;;;1.99;49.62;95974.28;5028149;28;20033;-65
2022/03/24 02:19:26;;;;;;;27.45;15.38;;;;;;;1.98;49.87;95981.94;5027529;28;20688;-66
2022/03/24 02:21:56;;;;;;;26.60;13.88;;;;;;;1.83;49.82;95960.09;5027936;28;20083;-66
2022/03/24 02:24:26;;;;;;;26.23;14.05;;;;;;;1.64;50.02;95940.00;5027751;28;20036;-66
2022/03/24 02:26:53;;;;;;;26.52;14.80;;;;;;;1.84;50.21;95964.34;5028290;28;20025;-66
2022/03/24 02:29:21;;;;;;;25.08;14.15;;;;;;;1.53;49.88;95910.50;5028078;28;20033;-67
2022/03/24 02:31:49;;;;;;;32.30;17.92;;;;;;;1.99;49.96;95971.75;5027228;28;20025;-67
2022/03/24 02:37:02;;;;;;;27.00;16.10;;;;;;;2.13;49.71;95971.56;5028548;28;20068;-66
2022/03/24 02:39:28;;;;;;;30.42;18.48;;;;;;;2.13;50.09;95973.25;5027794;28;20026;-66
2022/03/24 02:41:55;;;;;;;30.30;17.75;;;;;;;2.10;49.86;95963.09;5028205;28;20021;-66
2022/03/24 02:44:27;;;;;;;31.17;18.27;;;;;;;2.08;50.13;95977.56;5027319;28;20028;-68
2022/03/24 02:46:55;;;;;;;33.85;19.70;;;;;;;1.93;49.93;95943.84;5030454;28;20060;-65
2022/03/24 02:49:24;;;;;;;30.52;18.85;;;;;;;1.94;50.17;95945.53;5031394;28;20506;-66
2022/03/24 02:51:51;;;;;;;35.95;18.48;;;;;;;1.89;50.39;95952.38;5031412;28;20037;-67
2022/03/24 02:54:17;;;;;;;33.08;19.13;;;;;;;1.33;50.41;95865.00;5031528;28;20171;-67
2022/03/24 02:56:43;;;;;;;33.05;17.20;;;;;;;1.86;50.34;95965.16;5031135;28;20037;-67
2022/03/24 02:59:10;;;;;;;31.13;19.08;;;;;;;1.74;50.68;95950.91;5031486;28;20037;-68
2022/03/24 03:01:44;;;;;;;35.97;19.65;;;;;;;1.77;50.69;95952.53;5031224;28;20033;-67
2022/03/24 03:04:10;;;;;;;32.22;19.77;;;;;;;1.91;51.06;95947.28;5031247;28;20095;-68
2022/03/24 03:06:39;;;;;;;32.88;19.13;;;;;;;2.07;50.77;95958.91;5031024;28;20072;-66
2022/03/24 03:09:06;;;;;;;32.72;19.65;;;;;;;1.97;50.97;95950.56;5031273;28;20026;-66
2022/03/24 03:11:33;;;;;;;37.88;20.55;;;;;;;1.76;51.39;95931.38;5030920;28;20030;-67
2022/03/24 03:13:59;;;;;;;33.15;19.92;;;;;;;1.92;51.31;95965.06;5031197;28;20165;-67
2022/03/24 03:16:26;;;;;;;25.63;15.63;;;;;;;1.88;50.94;95965.13;5030682;28;20030;-69
2022/03/24 03:18:52;;;;;;;36.85;20.67;;;;;;;1.84;51.40;95964.34;5030714;28;20666;-67
2022/03/24 03:21:17;;;;;;;34.28;21.17;;;;;;;1.61;51.87;95929.03;5031217;28;20053;-68
2022/03/24 03:23:44;;;;;;;34.33;19.25;;;;;;;1.88;51.72;95967.66;5031238;28;20664;-67
2022/03/24 03:26:11;;;;;;;24.63;14.88;;;;;;;1.57;51.28;95935.00;5030730;28;20033;-68
2022/03/24 03:28:37;;;;;;;26.95;16.20;;;;;;;1.59;51.70;95961.25;5030925;28;20036;-69
2022/03/24 03:31:03;;;;;;;24.95;15.80;;;;;;;1.37;51.58;95943.72;5030558;28;20032;-68
2022/03/24 03:33:29;;;;;;;24.55;15.80;;;;;;;1.47;51.31;95962.25;5030728;28;20489;-67
2022/03/24 03:35:55;;;;;;;35.42;20.42;;;;;;;1.29;52.49;95933.66;5030628;28;20519;-68
2022/03/24 03:38:21;;;;;;;35.22;20.45;;;;;;;1.65;52.61;95967.09;5030864;28;20664;-68
2022/03/24 03:40:47;;;;;;;36.85;19.95;;;;;;;1.76;52.42;95961.88;5030385;28;20044;-67
2022/03/24 03:43:14;;;;;;;37.65;19.85;;;;;;;1.52;52.26;95924.06;5029045;28;20823;-66
2022/03/24 03:45:42;;;;;;;38.55;20.77;;;;;;;1.70;52.50;95969.59;5030753;28;20033;-67
2022/03/24 03:48:09;;;;;;;34.45;21.60;;;;;;;1.49;52.92;95960.53;5030749;28;20251;-68
2022/03/24 03:50:35;;;;;;;35.10;19.92;;;;;;;0.94;52.83;95885.81;5030793;28;20096;-67
2022/03/24 03:53:00;;;;;;;33.60;17.90;;;;;;;1.25;53.21;95937.09;5030499;28;20558;-67
2022/03/24 03:55:27;;;;;;;27.52;17.02;;;;;;;1.26;52.50;95963.34;5030025;28;20035;-67
2022/03/24 03:57:53;;;;;;;37.10;19.58;;;;;;;1.16;52.90;95966.84;5029418;28;20056;-68
2022/03/24 04:03:04;;;;;;;31.10;18.27;;;;;;;1.07;53.50;95967.81;5030482;28;20098;-66
2022/03/24 04:05:31;;;;;;;34.95;19.02;;;;;;;1.02;53.35;95970.38;5030016;28;20160;-68
2022/03/24 04:07:56;;;;;;;29.35;20.10;;;;;;;1.05;53.32;95961.88;5029807;28;20105;-67
2022/03/24 04:10:22;;;;;;;35.97;20.48;;;;;;;0.96;53.51;95939.97;5029984;28;20074;-68
2022/03/24 04:12:48;;;;;;;34.30;21.13;;;;;;;0.68;53.33;95903.88;5029978;28;20424;-66
2022/03/24 04:15:13;;;;;;;33.97;18.65;;;;;;;0.79;53.48;95935.06;5029836;28;20030;-67
2022/03/24 04:17:39;;;;;;;39.45;20.20;;;;;;;0.70;53.43;95913.13;5029882;28;20037;-68
2022/03/24 04:20:07;;;;;;;30.33;18.63;;;;;;;0.87;53.33;95947.66;5029818;28;20030;-67
2022/03/24 04:22:32;;;;;;;36.60;18.90;;;;;;;1.11;53.15;95969.44;5029274;28;20054;-67
2022/03/24 04:24:58;;;;;;;39.97;21.10;;;;;;;0.91;53.06;95937.47;5029617;28;20040;-66
2022/03/24 04:27:23;;;;;;;34.75;18.95;;;;;;;1.13;53.28;95969.41;5028216;28;20050;-70
2022/03/24 04:29:49;;;;;;;35.15;21.55;;;;;;;1.15;53.17;95968.56;5029507;28;20492;-66
2022/03/24 04:32:14;;;;;;;41.58;21.63;;;;;;;1.10;52.79;95975.41;5028781;28;20033;-68
2022/03/24 04:34:40;;;;;;;34.00;21.67;;;;;;;1.02;53.21;95965.31;5029648;28;20041;-68
2022/03/24 04:37:05;;;;;;;38.35;21.13;;;;;;;0.89;53.02;95943.44;5029682;28;20036;-68
2022/03/24 04:39:31;;;;;;;40.55;23.02;;;;;;;1.03;52.76;95974.63;5029322;28;20025;-68
2022/03/24 04:41:57;;;;;;;37.90;22.77;;;;;;;1.05;53.18;95969.50;5029395;28;20121;-67
2022/03/24 04:44:24;;;;;;;40.45;23.02;;;;;;;1.15;53.26;95972.78;5028080;28;20053;-66
2022/03/24 04:46:50;;;;;;;37.13;24.13;;;;;;;1.01;52.39;95962.78;5029306;28;20029;-64
2022/03/24 04:49:16;;;;;;;39.08;23.27;;;;;;;0.93;52.80;95964.56;5029422;28;20039;-66
2022/03/24 04:51:42;;;;;;;34.95;24.17;;;;;;;0.67;52.48;95928.44;5029217;28;20496;-66
2022/03/24 04:54:08;;;;;;;38.38;22.67;;;;;;;1.10;51.95;95973.69;5029600;28;20033;-66
2022/03/24 04:56:33;;;;;;;38.60;21.65;;;;;;;1.08;52.09;95983.03;5024354;28;20041;-67
2022/03/24 04:58:59;;;;;;;31.83;20.25;;;;;;;1.06;52.59;95988.97;5025823;28;20029;-67
2022/03/24 05:01:25;;;;;;;38.35;22.63;;;;;;;1.08;52.61;95987.25;5028764;28;20037;-68
2022/03/24 05:03:50;;;;;;;40.30;23.00;;;;;;;1.12;52.50;95988.09;5029180;28;20094;-65
2022/03/24 05:06:16;;;;;;;37.50;22.35;;;;;;;1.18;51.92;95985.47;5027937;28;20033;-67
2022/03/24 05:08:42;;;;;;;39.45;22.40;;;;;;;1.07;51.80;95958.47;5028245;28;20215;-67
2022/03/24 05:11:07;;;;;;;42.33;23.38;;;;;;;1.36;51.83;95981.88;5028854;28;20025;-68
2022/03/24 05:13:32;;;;;;;40.60;21.92;;;;;;;1.31;51.56;95965.84;5028517;28;20033;-67
2022/03/24 05:15:58;;;;;;;38.85;22.98;;;;;;;1.63;51.11;95970.53;5028740;28;20086;-67
2022/03/24 05:18:26;;;;;;;35.55;20.25;;;;;;;1.75;50.70;95950.03;5028124;28;20104;-66
2022/03/24 05:20:53;;;;;;;38.95;21.88;;;;;;;1.91;50.23;95953.19;5028729;28;20095;-66
2022/03/24 05:23:19;;;;;;;34.25;19.92;;;;;;;2.08;49.62;95977.56;5028655;28;20041;-66
2022/03/24 05:25:47;;;;;;;39.55;21.15;;;;;;;1.59;49.61;95884.97;5028507;28;20042;-66
2022/03/24 05:28:13;;;;;;;35.72;20.38;;;;;;;2.27;49.28;95978.97;5028718;28;20025;-67
2022/03/24 05:30:38;;;;;;;38.35;19.92;;;;;;;2.45;49.38;95979.56;5028044;28;20040;-66
2022/03/24 05:33:04;;;;;;;35.40;21.77;;;;;;;2.46;48.69;95961.72;5028188;28;20120;-67
2022/03/24 05:35:35;;;;;;;34.55;21.15;;;;;;;2.60;48.44;95974.22;5028427;28;20136;-67
2022/03/24 05:38:01;;;;;;;43.97;25.20;;;;;;;2.67;48.18;95974.94;5028683;28;20738;-66
2022/03/24 05:40:26;;;;;;;37.60;21.48;;;;;;;2.55;48.42;95976.00;5028363;28;20471;-67
2022/03/24 05:42:52;;;;;;;36.90;19.55;;;;;;;2.68;48.39;95974.94;5028048;28;20079;-66
2022/03/24 05:45:17;;;;;;;28.40;19.23;;;;;;;2.57;47.90;95936.06;5028270;28;20025;-67
2022/03/24 05:47:43;;;;;;;38.80;22.88;;;;;;;2.50;47.52;95914.97;5028173;28;20025;-67
2022/03/24 05:50:09;;;;;;;38.92;21.90;;;;;;;3.01;47.20;95976.94;5028287;28;20057;-65
2022/03/24 05:52:34;;;;;;;32.33;20.75;;;;;;;3.02;47.18;95973.53;5028106;28;20042;-68
2022/03/24 05:55:00;;;;;;;41.63;22.70;;;;;;;3.05;47.00;95953.91;5028088;28;20038;-68
2022/03/24 05:57:25;;;;;;;34.78;22.00;;;;;;;3.05;46.91;95959.00;5028345;28;20044;-68
2022/03/24 05:59:51;;;;;;;46.85;27.88;;;;;;;3.12;46.74;95955.47;5028294;28;20033;-68
2022/03/24 06:02:16;;;;;;;43.67;26.33;;;;;;;3.27;46.74;95971.34;5019424;28;20043;-67
2022/03/24 06:04:43;;;;;;;40.25;23.02;;;;;;;3.04;46.42;95920.81;5018599;28;20036;-66
2022/03/24 06:07:14;;;;;;;40.65;22.70;;;;;;;3.52;45.81;95970.88;5013423;28;20046;-66
2022/03/24 06:09:41;;;;;;;38.70;22.13;;;;;;;3.63;45.66;95971.50;5016657;28;20053;-69
2022/03/24 06:12:10;;;;;;;38.40;19.75;;;;;;;3.79;44.82;95970.31;5015838;28;20052;-68
2022/03/24 06:14:37;;;;;;;27.63;17.02;;;;;;;3.91;44.25;95976.03;5019121;28;20481;-68
2022/03/24 06:17:04;;;;;;;32.08;17.23;;;;;;;3.84;44.45;95963.38;5019125;28;20025;-66
2022/03/24 06:19:29;;;;;;;42.65;22.33;;;;;;;4.04;44.48;95975.72;5015816;28;20072;-67
2022/03/24 06:21:55;;;;;;;42.50;22.35;;;;;;;3.97;44.05;95953.75;5018600;28;20461;-67
2022/03/24 06:24:21;;;;;;;40.17;21.75;;;;;;;4.00;44.26;95966.44;5019547;28;20033;-67
2022/03/24 06:26:47;;;;;;;38.47;22.27;;;;;;;4.01;44.25;95963.00;5019608;28;20093;-65
2022/03/24 06:29:13;;;;;;;35.25;20.63;;;;;;;4.13;43.39;95935.53;5021164;28;20434;-68
2022/03/24 06:31:42;;;;;;;36.60;22.75;;;;;;;4.40;43.23;95947.66;5023283;28;20021;-68
2022/03/24 06:34:08;;;;;;;28.75;19.27;;;;;;;4.34;43.57;95954.63;5020684;28;20025;-65
2022/03/24 06:36:33;;;;;;;34.42;20.67;;;;;;;4.09;43.48;95929.66;5020063;28;20025;-67
2022/03/24 06:39:00;;;;;;;34.10;21.05;;;;;;;4.13;43.40;95958.50;5023032;28;20022;-67
2022/03/24 06:41:27;;;;;;;35.88;22.48;;;;;;;3.70;43.24;95871.00;5021067;28;20523;-67
2022/03/24 06:43:55;;;;;;;48.17;23.50;;;;;;;4.50;43.34;95952.56;5024201;28;20097;-70
2022/03/24 06:46:21;;;;;;;40.47;24.42;;;;;;;4.62;42.79;95954.78;5028318;28;20500;-71
2022/03/24 06:48:47;;;;;;;44.38;25.77;;;;;;;4.45;42.42;95929.69;5022486;28;20114;-70
2022/03/24 06:51:13;;;;;;;42.00;26.08;;;;;;;4.46;42.45;95936.47;5009723;28;20046;-72
2022/03/24 06:53:38;;;;;;;44.83;27.55;;;;;;;4.51;42.68;95926.13;5015563;28;20041;-67
2022/03/24 06:56:05;;;;;;;38.25;25.63;;;;;;;4.66;42.28;95942.81;5012613;28;20564;-72
2022/03/24 06:58:30;;;;;;;47.47;26.65;;;;;;;4.81;42.24;95942.41;5012243;28;20416;-71
2022/03/24 07:00:56;;;;;;;41.42;25.92;;;;;;;4.76;41.83;95905.91;5016028;28;20041;-70
2022/03/24 07:03:21;;;;;;;45.03;28.60;;;;;;;5.04;41.62;95936.69;5014716;28;20087;-68
2022/03/24 07:05:47;;;;;;;38.70;26.63;;;;;;;5.21;41.39;95936.22;5017128;28;20037;-71
2022/03/24 07:08:13;;;;;;;41.25;27.25;;;;;;;5.17;40.91;95901.41;5009608;28;20405;-71
2022/03/24 07:10:38;;;;;;;42.63;26.17;;;;;;;5.31;41.02;95922.34;5018092;28;20042;-70
2022/03/24 07:13:04;;;;;;;47.88;27.60;;;;;;;5.23;40.46;95892.72;5008748;28;20036;-71
2022/03/24 07:15:29;;;;;;;42.30;26.85;;;;;;;5.45;40.28;95931.34;5019320;28;20045;-70
2022/03/24 07:17:55;;;;;;;43.63;27.35;;;;;;;5.48;40.32;95919.28;5008241;28;20046;-71
2022/03/24 07:20:21;;;;;;;39.72;26.00;;;;;;;5.70;39.92;95905.88;5017034;28;20056;-68
2022/03/24 07:22:47;;;;;;;36.25;24.70;;;;;;;5.89;39.71;95896.75;5027780;28;20117;-71
2022/03/24 07:25:13;;;;;;;39.90;23.60;;;;;;;5.91;39.50;95889.03;5021691;28;20104;-69
2022/03/24 07:27:39;;;;;;;43.28;26.10;;;;;;;6.18;39.15;95927.50;5012277;28;20137;-69
2022/03/24 07:30:05;;;;;;;40.60;24.08;;;;;;;6.09;39.33;95897.91;5010369;28;20477;-70
2022/03/24 07:32:32;;;;;;;41.50;25.17;;;;;;;6.38;39.03;95922.59;5022476;28;20480;-69
2022/03/24 07:34:58;;;;;;;43.42;24.73;;;;;;;6.56;38.81;95922.88;5023307;28;20040;-70
2022/03/24 07:37:24;;;;;;;43.95;26.08;;;;;;;6.48;37.83;95883.84;5016800;28;20409;-73
2022/03/24 07:39:49;;;;;;;34.33;23.02;;;;;;;6.79;38.00;95917.84;5008817;28;20033;-72
2022/03/24 07:42:15;;;;;;;41.05;23.38;;;;;;;6.50;37.43;95825.72;5017625;28;20367;-71
2022/03/24 07:44:41;;;;;;;39.03;24.05;;;;;;;7.31;37.17;95924.59;5005776;28;20034;-72
2022/03/24 07:47:07;;;;;;;40.78;24.75;;;;;;;7.42;36.93;95921.66;5015554;28;20033;-70
2022/03/24 07:49:32;;;;;;;38.72;25.42;;;;;;;7.46;37.05;95918.94;5027335;28;20060;-72
2022/03/24 07:51:58;;;;;;;40.97;27.55;;;;;;;7.25;37.08;95884.63;5021199;28;20037;-70
2022/03/24 07:54:55;;;;;;;44.30;27.52;;;;;;;7.50;36.85;95914.53;5007917;28;20048;-71
2022/03/24 07:57:24;;;;;;;38.10;24.05;;;;;;;7.69;36.25;95895.00;5015567;28;20033;-71
2022/03/24 07:59:50;;;;;;;47.47;23.67;;;;;;;7.73;36.25;95880.31;5021809;28;20033;-71
2022/03/24 08:02:17;;;;;;;38.80;24.67;;;;;;;7.97;36.12;95887.94;5028049;28;20432;-71
2022/03/24 08:04:42;;;;;;;39.20;21.27;;;;;;;8.22;35.75;95898.13;5027558;28;20033;-71
2022/03/24 08:07:08;;;;;;;31.80;22.08;;;;;;;8.27;35.26;95865.34;5029844;28;20096;-67
2022/03/24 08:09:36;;;;;;;36.60;22.95;;;;;;;8.54;34.83;95901.97;5030186;28;20481;-69
2022/03/24 08:12:02;;;;;;;30.27;19.55;;;;;;;8.07;34.72;95807.09;5029936;28;20087;-72
2022/03/24 08:14:27;;;;;;;34.33;19.30;;;;;;;8.58;34.09;95843.56;5029978;28;20029;-73
2022/03/24 08:16:53;;;;;;;32.55;21.08;;;;;;;8.77;33.98;95866.75;5029953;28;20323;-73
2022/03/24 08:19:21;;;;;;;36.40;21.60;;;;;;;9.12;34.37;95895.31;5029704;28;20415;-74
2022/03/24 08:21:46;;;;;;;34.80;21.58;;;;;;;9.10;33.92;95871.34;5029720;28;20068;-74
2022/03/24 08:24:12;;;;;;;33.42;20.33;;;;;;;9.45;33.95;95882.69;5029806;28;20034;-73
2022/03/24 08:26:37;;;;;;;34.65;19.90;;;;;;;9.60;32.92;95881.16;5029402;28;20048;-69
2022/03/24 08:29:04;;;;;;;30.95;18.23;;;;;;;9.53;32.80;95836.00;5029594;28;20018;-72
2022/03/24 08:31:30;;;;;;;26.98;16.13;;;;;;;10.01;32.90;95882.75;5029219;28;20528;-72
2022/03/24 08:33:56;;;;;;;29.92;16.73;;;;;;;10.21;32.04;95881.78;5029817;28;20025;-70
2022/03/24 08:36:21;;;;;;;27.83;14.50;;;;;;;9.87;32.08;95800.94;5029504;28;20485;-70
2022/03/24 08:38:47;;;;;;;20.95;12.43;;;;;;;10.33;32.42;95867.50;5029218;28;20096;-72
2022/03/24 08:41:12;;;;;;;26.80;15.05;;;;;;;10.51;31.67;95868.34;5029593;28;20040;-72
2022/03/24 08:43:38;;;;;;;23.88;13.98;;;;;;;10.72;31.94;95872.44;5026855;28;20120;-73
2022/03/24 08:46:06;;;;;;;20.17;12.02;;;;;;;10.87;31.79;95870.00;5029404;28;20037;-73
2022/03/24 08:48:32;;;;;;;24.98;13.77;;;;;;;10.88;31.60;95849.28;5029029;28;20461;-73
2022/03/24 08:50:58;;;;;;;21.42;12.38;;;;;;;11.08;31.50;95853.41;5029187;28;20113;-72
2022/03/24 08:53:23;;;;;;;18.52;12.48;;;;;;;11.32;31.49;95859.06;5029045;28;20183;-71
2022/03/24 08:55:48;;;;;;;17.17;11.50;;;;;;;11.46;31.30;95860.06;5028815;28;20483;-75
2022/03/24 08:58:18;;;;;;;16.65;11.60;;;;;;;11.55;31.09;95852.69;5029698;28;20021;-71
2022/03/24 09:00:45;;;;;;;29.02;16.27;;;;;;;11.73;31.09;95855.19;5028802;28;20038;-73
2022/03/24 09:03:10;;;;;;;15.95;10.55;;;;;;;11.71;30.52;95818.28;5028778;28;20122;-72
2022/03/24 09:05:36;;;;;;;24.88;14.23;;;;;;;12.14;30.09;95845.19;5028722;28;20116;-71
2022/03/24 09:08:02;;;;;;;17.17;11.45;;;;;;;14.86;26.54;95834.66;5028777;28;20116;-72
2022/03/24 09:10:27;;;;;;;18.52;12.27;;;;;;;17.95;22.29;95747.81;5028806;28;20631;-70
2022/03/24 09:12:53;;;;;;;18.50;10.55;;;;;;;20.94;19.37;95810.31;5028885;28;20083;-73
2022/03/24 09:15:19;;;;;;;18.55;11.75;;;;;;;22.72;17.81;95804.78;5027336;28;20528;-72
2022/03/24 09:17:45;;;;;;;15.85;11.00;;;;;;;24.76;15.74;95790.78;5029653;28;20031;-73
2022/03/24 09:20:18;;;;;;;20.17;12.18;;;;;;;25.91;14.35;95799.38;5029148;28;20025;-74
2022/03/24 09:22:48;;;;;;;17.90;12.50;;;;;;;26.67;13.48;95752.00;5028301;28;20055;-75
2022/03/24 09:25:15;;;;;;;18.48;13.20;;;;;;;28.71;12.44;95773.50;5029761;28;20373;-75
2022/03/24 09:27:51;;;;;;;18.63;10.88;;;;;;;29.09;11.36;95795.25;5028417;28;20030;-73
2022/03/24 09:30:18;;;;;;;13.25;8.77;;;;;;;27.35;12.13;95789.91;5029645;28;20047;-73
2022/03/24 09:32:46;;;;;;;12.82;9.20;;;;;;;28.00;11.50;95780.34;5027539;28;20095;-73
2022/03/24 09:35:13;;;;;;;14.48;10.25;;;;;;;29.57;10.71;95767.97;5029014;28;20026;-75
2022/03/24 09:37:45;;;;;;;13.43;9.05;;;;;;;30.18;10.17;95775.16;5028777;28;20041;-78
2022/03/24 09:40:15;;;;;;;12.80;9.30;;;;;;;31.03;9.40;95755.22;5027784;28;20025;-76
2022/03/24 09:42:41;;;;;;;11.95;8.25;;;;;;;30.33;9.22;95767.00;5027465;28;20029;-71
2022/03/24 09:45:09;;;;;;;11.52;8.40;;;;;;;29.94;9.57;95776.53;5028001;28;20036;-75
2022/03/24 09:47:35;;;;;;;14.70;9.00;;;;;;;31.04;8.91;95763.00;5028569;28;20029;-73
2022/03/24 09:50:02;;;;;;;12.82;8.38;;;;;;;31.46;8.87;95747.50;5026926;28;20084;-76
2022/03/24 09:52:28;;;;;;;14.25;9.05;;;;;;;32.68;8.00;95759.25;5028063;28;20044;-71
2022/03/24 09:54:54;;;;;;;11.65;9.38;;;;;;;32.52;8.10;95760.59;5026476;28;20049;-73
2022/03/24 09:57:20;;;;;;;11.93;8.63;;;;;;;34.01;7.34;95719.63;5009598;28;20040;-71
2022/03/24 09:59:46;;;;;;;11.93;7.68;;;;;;;32.62;7.72;95720.91;5027968;28;20064;-72
2022/03/24 10:02:11;;;;;;;12.35;8.00;;;;;;;31.82;7.72;95746.16;5027749;28;20143;-72
2022/03/24 10:04:51;;;;;;;12.82;8.38;;;;;;;32.03;7.79;95742.38;5027616;28;20030;-69
2022/03/24 10:07:26;;;;;;;12.68;8.38;;;;;;;33.04;7.14;95739.84;5027299;28;20030;-72
2022/03/24 10:09:55;;;;;;;12.25;10.27;;;;;;;33.94;6.87;95740.31;5027314;28;20075;-71
2022/03/24 10:12:27;;;;;;;9.52;7.07;;;;;;;31.27;7.89;95748.38;5027393;28;20060;-71
2022/03/24 10:15:12;;;;;;;9.65;7.18;;;;;;;31.04;8.09;95733.69;5027302;28;20461;-70
2022/03/24 10:17:40;;;;;;;11.63;8.18;;;;;;;31.36;7.24;95730.34;5027005;28;20033;-70
2022/03/24 10:20:15;;;;;;;11.30;7.15;;;;;;;31.24;7.95;95716.81;5027014;28;20059;-70
2022/03/24 10:22:52;;;;;;;13.25;8.82;;;;;;;29.75;8.32;95689.53;5027445;28;20187;-71
2022/03/24 10:25:20;;;;;;;10.85;8.40;;;;;;;31.76;7.67;95724.88;5027202;28;20150;-71
2022/03/24 10:28:09;;;;;;;12.20;8.30;;;;;;;31.76;7.34;95719.53;5027110;28;20033;-71
2022/03/24 10:30:55;;;;;;;12.40;8.77;;;;;;;32.81;7.03;95712.94;5024755;28;20421;-73
2022/03/24 10:33:45;;;;;;;8.45;6.82;;;;;;;30.62;7.64;95708.31;5027242;28;20029;-74
2022/03/24 10:36:16;;;;;;;13.45;7.82;;;;;;;30.14;8.25;95696.81;5027528;28;20326;-74
2022/03/24 10:38:46;;;;;;;12.25;8.30;;;;;;;33.07;6.96;95666.44;5027431;28;20083;-72
2022/03/24 10:41:24;;;;;;;12.73;9.82;;;;;;;33.18;6.82;95688.97;5027094;28;20029;-72
2022/03/24 10:43:56;;;;;;;12.45;7.97;;;;;;;34.51;6.24;95659.59;5024963;28;20034;-71
2022/03/24 10:46:27;;;;;;;11.85;7.93;;;;;;;34.24;6.30;95697.53;5025346;28;20075;-71
2022/03/24 10:48:54;;;;;;;11.88;7.75;;;;;;;34.74;6.32;95666.84;5027077;28;20032;-73
2022/03/24 10:51:31;;;;;;;13.07;9.20;;;;;;;34.87;6.22;95612.22;5027335;28;20041;-74
2022/03/24 10:54:19;;;;;;;12.63;8.77;;;;;;;35.13;6.40;95675.22;5026880;28;20029;-73
2022/03/24 10:57:06;;;;;;;12.52;9.27;;;;;;;35.76;5.37;95656.66;5026419;28;20037;-73
2022/03/24 10:59:37;;;;;;;9.43;7.63;;;;;;;33.59;6.43;95648.16;5027141;28;20029;-72
2022/03/24 11:02:04;;;;;;;9.00;7.25;;;;;;;33.37;6.32;95671.88;5026954;28;20144;-71
2022/03/24 11:04:30;;;;;;;10.18;7.50;;;;;;;33.85;6.31;95663.06;5027148;28;20033;-72
2022/03/24 11:06:55;;;;;;;10.27;8.18;;;;;;;36.00;5.61;95668.91;5027524;28;20030;-74
2022/03/24 11:09:23;;;;;;;10.50;7.60;;;;;;;33.43;6.29;95614.84;5030262;28;20120;-71
2022/03/24 11:12:26;;;;;;;10.85;7.75;;;;;;;33.13;6.68;95653.00;5030505;28;20037;-72
2022/03/24 11:14:57;;;;;;;11.60;7.80;;;;;;;32.52;6.65;95641.28;5030160;28;20045;-72
2022/03/24 11:17:24;;;;;;;9.60;7.97;;;;;;;32.96;6.97;95599.38;5030057;28;20037;-72
2022/03/24 11:19:57;;;;;;;9.60;7.80;;;;;;;33.81;6.42;95640.50;5029239;28;20138;-73
2022/03/24 11:22:53;;;;;;;9.88;6.97;;;;;;;32.98;6.67;95621.31;5030650;28;20484;-73
2022/03/24 11:25:20;;;;;;;11.55;7.05;;;;;;;30.02;8.12;95640.75;5029876;28;20438;-73
2022/03/24 11:27:48;;;;;;;12.82;7.07;;;;;;;30.81;7.66;95590.31;5028656;28;20041;-73
2022/03/24 11:30:15;;;;;;;8.93;6.75;;;;;;;32.27;7.11;95608.44;5030511;28;20100;-73
2022/03/24 11:32:43;;;;;;;11.02;7.10;;;;;;;33.30;6.40;95617.69;5029331;28;20040;-74